createdAt,value
2022-08-21T00:00:44.910Z,60.2
2022-08-21T00:15:54.065Z,60.3
2022-08-21T00:31:03.990Z,60.5
2022-08-21T00:46:14.427Z,60.8
2022-08-21T01:01:27.285Z,61
2022-08-21T01:16:36.456Z,61.2
2022-08-21T01:31:45.973Z,61.2
2022-08-21T01:46:55.605Z,61.5
2022-08-21T02:02:04.960Z,61.7
2022-08-21T02:17:14.778Z,61.8
2022-08-21T02:32:24.046Z,62
2022-08-21T02:47:33.520Z,62.1
2022-08-21T03:02:42.758Z,62.2
2022-08-21T03:17:52.394Z,62.2
2022-08-21T03:33:01.479Z,62.1
2022-08-21T03:48:13.621Z,62
2022-08-21T04:03:23.186Z,62
2022-08-21T04:18:32.537Z,62
2022-08-21T04:33:41.809Z,62
2022-08-21T04:48:51.201Z,62.1
2022-08-21T05:04:00.969Z,62.1
2022-08-21T05:19:11.339Z,62.4
2022-08-21T05:34:21.601Z,62.5
2022-08-21T05:49:30.694Z,62.6
2022-08-21T06:04:39.889Z,62.9
2022-08-21T06:19:49.190Z,62.7
2022-08-21T06:34:58.346Z,62.9
2022-08-21T06:50:08.231Z,62.5
2022-08-21T07:05:19.217Z,62.4
2022-08-21T07:20:28.381Z,62
2022-08-21T07:35:38.162Z,61.5
2022-08-21T07:50:48.112Z,61
2022-08-21T08:05:57.683Z,60.6
2022-08-21T08:21:07.583Z,60.1
2022-08-21T08:37:35.020Z,58.2
2022-08-21T08:52:45.233Z,59.2
2022-08-21T09:07:54.872Z,58.7
2022-08-21T09:23:05.045Z,58.1
2022-08-21T09:38:14.933Z,57.7
2022-08-21T09:53:25.153Z,57.2
2022-08-21T10:08:34.960Z,56.9
2022-08-21T10:23:44.834Z,56.6
2022-08-21T10:39:36.691Z,56.2
2022-08-21T10:54:47.030Z,56
2022-08-21T11:09:56.816Z,55.5
2022-08-21T11:25:09.375Z,54.7
2022-08-21T11:40:19.700Z,54.2
2022-08-21T11:55:32.403Z,53.7
2022-08-21T12:10:42.383Z,53.2
2022-08-21T12:25:52.059Z,53.2
2022-08-21T12:41:01.588Z,51.7
2022-08-21T12:56:12.873Z,50.6
2022-08-21T13:11:34.515Z,49.8
2022-08-21T13:26:44.892Z,48.6
2022-08-21T13:41:55.582Z,47.8
2022-08-21T13:57:05.715Z,47
2022-08-21T14:12:24.282Z,48.4
2022-08-21T14:27:33.666Z,49
2022-08-21T14:42:42.223Z,49
2022-08-21T14:57:52.037Z,47.7
2022-08-21T15:13:02.286Z,46.8
2022-08-21T15:28:11.188Z,46.6
2022-08-21T15:43:30.953Z,47.1
2022-08-21T15:58:39.969Z,48.3
2022-08-21T16:13:48.368Z,49.1
2022-08-21T16:28:57.563Z,49.5
2022-08-21T16:44:11.501Z,49.7
2022-08-21T16:59:20.202Z,49.9
2022-08-21T17:14:29.271Z,50.2
2022-08-21T17:29:38.387Z,50.4
2022-08-21T17:44:47.682Z,50.5
2022-08-21T17:59:58.877Z,50.7
2022-08-21T18:15:08.026Z,50.8
2022-08-21T18:30:18.331Z,51
2022-08-21T18:45:27.573Z,51.2
2022-08-21T19:00:44.989Z,51.6
2022-08-21T19:15:53.883Z,51.9
2022-08-21T19:31:05.647Z,52.4
2022-08-21T19:46:17.238Z,52.6
2022-08-21T20:01:26.741Z,52.9
2022-08-21T20:16:35.970Z,53.2
2022-08-21T20:31:45.974Z,53.4
2022-08-21T20:46:55.449Z,53.7
2022-08-21T21:02:18.635Z,54.1
2022-08-21T21:17:31.474Z,54.4
2022-08-21T21:32:40.872Z,54.6
2022-08-21T21:47:50.021Z,54.7
2022-08-21T22:03:01.467Z,54.7
2022-08-21T22:18:16.422Z,55.3
2022-08-21T22:33:27.361Z,55.6
2022-08-21T22:48:45.272Z,55.9
2022-08-21T23:03:57.781Z,56.2
2022-08-21T23:19:07.174Z,56.6
2022-08-21T23:34:20.621Z,57
2022-08-21T23:49:32.297Z,57.3
